Dai2kousei — JD2542 — position and weather

sailwx.info

Track history (hours):
 
Tides and Currents Weather Stations Pressure Air Temp Water Temp Dewpoint Dewpoint Depression Visibility Wind Speed Wind Dir Waves Ship Positions

Dai2kousei

Last reported at 2017-May-24 05:30 UTC. Time now 2017-May-24 05:57 UTC.
Position N 35°29' E 139°39'.

Length 77 m; draft 3.8 m.

MMSI: 431000467.

Date/timePositionNaut miles runAvg speedWind from/ knotsBaromVisibWave heightAir tempDewpointWater temp
2017-May-24 05:30N 35°29' E 139°39'0 0.0
2017-May-24 05:00N 35°29' E 139°39'0 0.0
2017-May-24 04:30N 35°29' E 139°39'0 0.0
2017-May-24 04:00N 35°29' E 139°39'0 0.0
2017-May-24 03:30N 35°29' E 139°39'0 0.0
2017-May-24 03:00N 35°29' E 139°39'0 0.0
2017-May-24 02:30N 35°29' E 139°39'0 0.0
2017-May-24 02:00N 35°29' E 139°39'0 0.0
2017-May-24 01:30N 35°29' E 139°39'0 0.0
2017-May-24 01:00N 35°29' E 139°39'0 0.0
2017-May-24 00:30N 35°29' E 139°39'0 0.0
2017-May-24 00:00N 35°29' E 139°39'0 0.0
2017-May-23 23:30N 35°29' E 139°39'0 0.0
2017-May-23 23:00N 35°29' E 139°39'0 0.0
2017-May-23 22:30N 35°29' E 139°39'0 0.0
2017-May-23 22:00N 35°29' E 139°39'0 0.0
2017-May-23 21:30N 35°29' E 139°39'0 0.0
2017-May-23 21:00N 35°29' E 139°39'0 0.0
2017-May-23 20:30N 35°29' E 139°39'0 0.0
2017-May-23 20:00N 35°29' E 139°39'0 0.0
2017-May-23 19:30N 35°29' E 139°39'0 0.0
2017-May-23 19:00N 35°29' E 139°39'0 0.0
2017-May-23 18:30N 35°29' E 139°39'0 0.0
2017-May-23 18:00N 35°29' E 139°39'0 0.0
2017-May-23 17:30N 35°29' E 139°39'0 0.0
2017-May-23 17:00N 35°29' E 139°39'0 0.0
2017-May-23 16:30N 35°29' E 139°39'0 0.0
2017-May-23 16:00N 35°29' E 139°39'0 0.0
2017-May-23 15:30N 35°29' E 139°39'0 0.0
2017-May-23 15:00N 35°29' E 139°39'0 0.0
2017-May-23 14:00N 35°29' E 139°39'0 0.0
2017-May-23 13:30N 35°29' E 139°39'0 0.0
2017-May-23 13:00N 35°29' E 139°39'0 0.0
2017-May-23 12:30N 35°29' E 139°39'0 0.0
2017-May-23 12:00N 35°29' E 139°39'0 0.0
2017-May-23 11:30N 35°29' E 139°39'0 0.0
2017-May-23 11:00N 35°29' E 139°39'0 0.0
2017-May-23 10:30N 35°29' E 139°39'0 0.0
2017-May-23 10:00N 35°29' E 139°39'0 0.0
2017-May-23 09:30N 35°29' E 139°39'0 0.0
2017-May-23 09:00N 35°29' E 139°39'1 1.4
2017-May-23 08:30N 35°28' E 139°40'510.5
2017-May-23 08:00N 35°27' E 139°46'510.2
2017-May-23 07:30N 35°30' E 139°51'510.6
2017-May-23 07:00N 35°32' E 139°57'8 1.0
2017-May-22 22:46N 35°35' E 140°07'2 0.6
2017-May-22 19:06N 35°35' E 140°04'0 0.0
2017-May-22 18:50N 35°35' E 140°04'0 0.0
2017-May-22 15:56N 35°35' E 140°04'0 0.0
2017-May-22 15:26N 35°35' E 140°04'0 0.0
2017-May-22 14:48N 35°35' E 140°04'0 0.0
2017-May-22 14:30N 35°35' E 140°04'1 0.3
2017-May-22 10:33N 35°34' E 140°03'210.7
2017-May-22 10:22N 35°33' E 140°01'411.0
2017-May-22 10:00N 35°31' E 139°56'511.0
2017-May-22 09:30N 35°28' E 139°51'5 9.8
2017-May-22 09:00N 35°29' E 139°45'1 1.6
2017-May-22 08:30N 35°29' E 139°44'0 0.0
2017-May-22 08:00N 35°29' E 139°44'0 0.0
2017-May-22 07:30N 35°29' E 139°44'0 0.0
2017-May-22 07:00N 35°29' E 139°44'0 0.0
2017-May-22 06:30N 35°29' E 139°44'0 0.0
2017-May-22 06:00N 35°29' E 139°44'0 0.0
2017-May-22 05:30N 35°29' E 139°44'0 0.0
2017-May-22 05:00N 35°29' E 139°44'0 0.0
2017-May-22 04:30N 35°29' E 139°44'0 0.0
2017-May-22 04:00N 35°29' E 139°44'0 0.0
2017-May-22 03:30N 35°29' E 139°44'0 0.0
2017-May-22 03:00N 35°29' E 139°44'0 0.0
2017-May-22 02:30N 35°29' E 139°44'0 0.0
2017-May-22 02:00N 35°29' E 139°44'0 0.0
2017-May-22 01:30N 35°29' E 139°44'0 0.0
2017-May-22 01:00N 35°29' E 139°44'0 0.0
2017-May-22 00:30N 35°29' E 139°44'0 0.0
2017-May-22 00:00N 35°29' E 139°44'0 0.0
2017-May-21 23:30N 35°29' E 139°44'0 0.0
2017-May-21 23:00N 35°29' E 139°44'0 0.1
2017-May-21 22:30N 35°29' E 139°44'1 2.4
2017-May-21 22:00N 35°29' E 139°46'0 0.0
2017-May-21 21:30N 35°29' E 139°46'0 0.0
2017-May-21 21:00N 35°29' E 139°46'0 0.0
2017-May-21 20:30N 35°29' E 139°46'0 0.0
2017-May-21 20:00N 35°29' E 139°46'0 0.0
2017-May-21 19:30N 35°29' E 139°46'0 0.0
2017-May-21 19:00N 35°29' E 139°46'0 0.0
2017-May-21 18:30N 35°29' E 139°46'0 0.0
2017-May-21 18:00N 35°29' E 139°46'0 0.0
2017-May-21 17:30N 35°29' E 139°46'0 0.0
2017-May-21 17:00N 35°29' E 139°46'0 0.0
2017-May-21 16:30N 35°29' E 139°46'0 0.1
2017-May-21 16:00N 35°29' E 139°46'0 0.1
2017-May-21 15:30N 35°29' E 139°46'0 0.0
2017-May-21 15:00N 35°29' E 139°46'0 0.0
2017-May-21 14:30N 35°29' E 139°46'0 0.0
2017-May-21 13:30N 35°29' E 139°46'0 0.0
2017-May-21 13:00N 35°29' E 139°46'0 0.0
2017-May-21 12:30N 35°29' E 139°46'0 0.1
2017-May-21 12:00N 35°29' E 139°46'0 0.1
2017-May-21 11:30N 35°29' E 139°46'0 0.0
2017-May-21 11:00N 35°29' E 139°46'0 0.1
2017-May-21 10:30N 35°29' E 139°46'0 0.0
2017-May-21 10:00N 35°29' E 139°46'0 0.1
2017-May-21 09:30N 35°29' E 139°46'0 0.1
2017-May-21 09:00N 35°29' E 139°46'0 0.1
2017-May-21 08:30N 35°29' E 139°46'0 0.1
2017-May-21 08:00N 35°29' E 139°46'0 0.0
2017-May-21 07:30N 35°29' E 139°46'0 0.0
2017-May-21 07:00N 35°29' E 139°46'0 0.0
2017-May-21 06:30N 35°29' E 139°46'0 0.0
2017-May-21 06:00N 35°29' E 139°46'0 0.1
2017-May-21 05:30N 35°29' E 139°46'0 0.0
2017-May-21 05:00N 35°29' E 139°46'0 0.0
2017-May-21 04:30N 35°29' E 139°46'0 0.0
2017-May-21 04:00N 35°29' E 139°46'1 1.2
2017-May-21 03:30N 35°29' E 139°46'510.2
2017-May-21 03:00N 35°30' E 139°52'611.5
2017-May-21 02:30N 35°33' E 139°58'3 0.6
2017-May-20 22:00N 35°34' E 140°02'5 7.3
2017-May-20 21:19N 35°39' E 139°59'2 0.1
2017-May-20 05:30N 35°41' E 139°59'4 0.2
2017-May-19 12:45N 35°37' E 139°58'4 9.8
2017-May-19 12:19N 35°34' E 139°55'411.6
2017-May-19 12:00N 35°31' E 139°52'611.6
2017-May-19 11:30N 35°29' E 139°45'1 2.2
2017-May-19 11:00N 35°29' E 139°44'0 0.0
2017-May-19 10:30N 35°29' E 139°44'0 0.0
2017-May-19 10:00N 35°29' E 139°44'0 0.0
2017-May-19 09:30N 35°29' E 139°44'0 0.0
2017-May-19 09:00N 35°29' E 139°44'0 0.0
2017-May-19 08:30N 35°29' E 139°44'0 0.0
2017-May-19 08:00N 35°29' E 139°44'0 0.0
2017-May-19 07:30N 35°29' E 139°44'0 0.0
2017-May-19 07:00N 35°29' E 139°44'0 0.0
2017-May-19 06:30N 35°29' E 139°44'0 0.0
2017-May-19 06:00N 35°29' E 139°44'0 0.0
2017-May-19 05:30N 35°29' E 139°44'0 0.0
2017-May-19 05:00N 35°29' E 139°44'0 0.0
2017-May-19 04:30N 35°29' E 139°44'0 0.0
2017-May-19 04:00N 35°29' E 139°44'0 0.0
2017-May-19 03:30N 35°29' E 139°44'0 0.0
2017-May-19 03:00N 35°29' E 139°44'1 2.6
2017-May-19 02:30N 35°29' E 139°46'0 0.1
2017-May-19 02:00N 35°29' E 139°45'0 0.0
2017-May-19 01:30N 35°29' E 139°45'0 0.0
2017-May-19 01:00N 35°29' E 139°45'0 0.0
2017-May-19 00:30N 35°29' E 139°45'0 0.0
2017-May-19 00:00N 35°29' E 139°45'0 0.0
2017-May-18 23:30N 35°29' E 139°45'0 0.1
2017-May-18 23:00N 35°29' E 139°46'0 0.0
2017-May-18 22:30N 35°29' E 139°46'0 0.0
2017-May-18 22:00N 35°29' E 139°46'0 0.0
2017-May-18 21:30N 35°29' E 139°46'0 0.0
2017-May-18 21:00N 35°29' E 139°46'0 0.0
2017-May-18 20:30N 35°29' E 139°46'0 0.0
2017-May-18 20:00N 35°29' E 139°46'0 0.0
2017-May-18 19:30N 35°29' E 139°46'0 0.0
2017-May-18 19:00N 35°29' E 139°46'0 0.0
2017-May-18 18:30N 35°29' E 139°46'0 0.0
2017-May-18 18:00N 35°29' E 139°46'0 0.0
2017-May-18 17:30N 35°29' E 139°46'0 0.1
2017-May-18 17:00N 35°29' E 139°45'0 0.0
2017-May-18 16:30N 35°29' E 139°45'0 0.0
2017-May-18 16:00N 35°29' E 139°45'0 0.0
2017-May-18 15:30N 35°29' E 139°45'0 0.0
2017-May-18 15:00N 35°29' E 139°45'0 0.0
2017-May-18 14:30N 35°29' E 139°45'0 0.1
2017-May-18 13:30N 35°29' E 139°45'0 0.0
2017-May-18 13:00N 35°29' E 139°45'0 0.0
2017-May-18 12:30N 35°29' E 139°45'0 0.0
2017-May-18 12:00N 35°29' E 139°45'0 0.0
2017-May-18 11:30N 35°29' E 139°45'0 0.0
2017-May-18 11:00N 35°29' E 139°45'0 0.0
2017-May-18 10:30N 35°29' E 139°45'0 0.0
2017-May-18 10:00N 35°29' E 139°45'0 0.0
2017-May-18 09:30N 35°29' E 139°45'0 0.3
2017-May-18 09:00N 35°28' E 139°46'610.9
2017-May-18 08:30N 35°30' E 139°52'5 0.5
2017-May-17 22:05N 35°30' E 139°59'1 7.5
2017-May-17 22:00N 35°31' E 139°58'0 0.1
2017-May-17 21:07N 35°30' E 139°58'0 0.0
2017-May-17 20:58N 35°30' E 139°58'0 0.0
2017-May-17 20:27N 35°30' E 139°58'0 0.0
2017-May-17 20:00N 35°30' E 139°58'0 0.0
2017-May-17 19:30N 35°30' E 139°58'0 0.0
2017-May-17 18:57N 35°30' E 139°58'0 0.0
2017-May-17 18:24N 35°30' E 139°58'0 0.0
2017-May-17 18:00N 35°30' E 139°58'0 0.0
2017-May-17 17:30N 35°30' E 139°58'0 0.0
2017-May-17 17:00N 35°30' E 139°58'0 0.0
2017-May-17 16:30N 35°30' E 139°58'0 0.0
2017-May-17 15:54N 35°30' E 139°58'0 0.0
2017-May-17 15:30N 35°30' E 139°58'0 0.0
2017-May-17 15:00N 35°30' E 139°58'0 0.0
2017-May-17 13:51N 35°30' E 139°58'0 0.0
2017-May-17 13:28N 35°30' E 139°58'0 0.0
2017-May-17 09:07N 35°30' E 139°58'0 0.0
2017-May-17 08:59N 35°30' E 139°58'0 0.0
2017-May-17 08:29N 35°30' E 139°58'0 0.0
2017-May-17 08:00N 35°30' E 139°58'0 0.0
2017-May-17 07:29N 35°30' E 139°58'0 0.0
2017-May-17 05:08N 35°30' E 139°58'0 0.0
2017-May-17 04:46N 35°30' E 139°58'0 0.0
2017-May-17 04:23N 35°31' E 139°58'3 8.5
2017-May-17 04:00N 35°29' E 139°55'5 9.7
2017-May-17 03:30N 35°27' E 139°50'5 9.7
2017-May-17 02:59N 35°23' E 139°46'5 9.3
2017-May-17 02:30N 35°19' E 139°44'43 1.2
2017-May-15 13:30N 34°47' E 139°08'2210.4
2017-May-15 11:24N 35°02' E 139°28'411.0
2017-May-15 11:00N 35°03' E 139°32'611.7
2017-May-15 10:30N 35°05' E 139°39'611.4
2017-May-15 10:00N 35°09' E 139°44'510.8
2017-May-15 09:30N 35°14' E 139°46'510.5
2017-May-15 09:00N 35°19' E 139°43'510.2
2017-May-15 08:30N 35°24' E 139°43'510.5
2017-May-15 08:00N 35°28' E 139°47'3 5.6
2017-May-15 07:30N 35°30' E 139°44'1 1.6
2017-May-15 07:00N 35°31' E 139°44'0 0.0
2017-May-15 06:30N 35°31' E 139°44'0 0.0
2017-May-15 06:00N 35°31' E 139°44'0 0.0
2017-May-15 05:30N 35°31' E 139°44'0 0.0
2017-May-15 05:00N 35°31' E 139°44'0 0.0
2017-May-15 04:30N 35°31' E 139°44'0 0.0
2017-May-15 04:00N 35°31' E 139°44'0 0.0
2017-May-15 03:30N 35°31' E 139°44'0 0.0
2017-May-15 03:00N 35°31' E 139°44'0 0.0
2017-May-15 02:30N 35°31' E 139°44'0 0.0
2017-May-15 02:00N 35°31' E 139°44'0 0.0
2017-May-15 01:30N 35°31' E 139°44'0 0.0
2017-May-15 01:00N 35°31' E 139°44'0 0.0
2017-May-15 00:30N 35°31' E 139°44'0 0.0
2017-May-15 00:00N 35°31' E 139°44'0 0.0
2017-May-14 23:30N 35°31' E 139°44'0 0.0
2017-May-14 23:00N 35°31' E 139°44'0 0.0
2017-May-14 22:30N 35°31' E 139°44'0 0.0
2017-May-14 22:00N 35°31' E 139°44'0 0.0
2017-May-14 21:30N 35°31' E 139°44'0 0.0
2017-May-14 21:00N 35°31' E 139°44'0 0.1
2017-May-14 20:30N 35°31' E 139°44'0 0.1
2017-May-14 20:00N 35°31' E 139°44'0 0.0
2017-May-14 19:30N 35°31' E 139°44'0 0.0
2017-May-14 19:00N 35°31' E 139°44'0 0.0
2017-May-14 18:30N 35°31' E 139°44'0 0.0
2017-May-14 18:00N 35°31' E 139°44'0 0.0
2017-May-14 17:30N 35°31' E 139°44'0 0.0
2017-May-14 17:00N 35°31' E 139°44'0 0.0
2017-May-14 16:30N 35°31' E 139°44'0 0.0
2017-May-14 16:00N 35°31' E 139°44'0 0.0
2017-May-14 15:30N 35°31' E 139°44'0 0.0
2017-May-14 15:00N 35°31' E 139°44'0 0.0
2017-May-14 14:30N 35°31' E 139°44'0 0.0
2017-May-14 13:30N 35°31' E 139°44'0 0.0
2017-May-14 13:00N 35°31' E 139°44'0 0.0
2017-May-14 12:30N 35°31' E 139°44'0 0.0
2017-May-14 12:00N 35°31' E 139°44'0 0.0
2017-May-14 11:30N 35°31' E 139°44'0 0.0
2017-May-14 11:00N 35°31' E 139°44'0 0.0
2017-May-14 10:30N 35°31' E 139°44'0 0.0
2017-May-14 10:00N 35°31' E 139°44'0 0.0
2017-May-14 09:30N 35°31' E 139°44'0 0.0
2017-May-14 09:00N 35°31' E 139°44'0 0.0
2017-May-14 08:30N 35°31' E 139°44'0 0.0
2017-May-14 08:00N 35°31' E 139°44'0 0.0
2017-May-14 07:30N 35°31' E 139°44'0 0.0
2017-May-14 07:00N 35°31' E 139°44'0 0.0
2017-May-14 06:30N 35°31' E 139°44'0 0.0
2017-May-14 06:00N 35°31' E 139°44'0 0.0
2017-May-14 05:30N 35°31' E 139°44'  
Track history (hours):
 
Tides and Currents Weather Stations Pressure Air Temp Water Temp Dewpoint Dewpoint Depression Visibility Wind Speed Wind Dir Waves Ship Positions

Dai2kousei

Last reported at 2017-May-24 05:30 UTC. Time now 2017-May-24 05:57 UTC.
Position N 35°29' E 139°39'.

Length 77 m; draft 3.8 m.

MMSI: 431000467.

Date/timePositionNaut miles runAvg speedWind from/ knotsBaromVisibWave heightAir tempDewpointWater temp
2017-May-24 05:30N 35°29' E 139°39'0 0.0
2017-May-24 05:00N 35°29' E 139°39'0 0.0
2017-May-24 04:30N 35°29' E 139°39'0 0.0
2017-May-24 04:00N 35°29' E 139°39'0 0.0
2017-May-24 03:30N 35°29' E 139°39'0 0.0
2017-May-24 03:00N 35°29' E 139°39'0 0.0
2017-May-24 02:30N 35°29' E 139°39'0 0.0
2017-May-24 02:00N 35°29' E 139°39'0 0.0
2017-May-24 01:30N 35°29' E 139°39'0 0.0
2017-May-24 01:00N 35°29' E 139°39'0 0.0
2017-May-24 00:30N 35°29' E 139°39'0 0.0
2017-May-24 00:00N 35°29' E 139°39'0 0.0
2017-May-23 23:30N 35°29' E 139°39'0 0.0
2017-May-23 23:00N 35°29' E 139°39'0 0.0
2017-May-23 22:30N 35°29' E 139°39'0 0.0
2017-May-23 22:00N 35°29' E 139°39'0 0.0
2017-May-23 21:30N 35°29' E 139°39'0 0.0
2017-May-23 21:00N 35°29' E 139°39'0 0.0
2017-May-23 20:30N 35°29' E 139°39'0 0.0
2017-May-23 20:00N 35°29' E 139°39'0 0.0
2017-May-23 19:30N 35°29' E 139°39'0 0.0
2017-May-23 19:00N 35°29' E 139°39'0 0.0
2017-May-23 18:30N 35°29' E 139°39'0 0.0
2017-May-23 18:00N 35°29' E 139°39'0 0.0
2017-May-23 17:30N 35°29' E 139°39'0 0.0
2017-May-23 17:00N 35°29' E 139°39'0 0.0
2017-May-23 16:30N 35°29' E 139°39'0 0.0
2017-May-23 16:00N 35°29' E 139°39'0 0.0
2017-May-23 15:30N 35°29' E 139°39'0 0.0
2017-May-23 15:00N 35°29' E 139°39'0 0.0
2017-May-23 14:00N 35°29' E 139°39'0 0.0
2017-May-23 13:30N 35°29' E 139°39'0 0.0
2017-May-23 13:00N 35°29' E 139°39'0 0.0
2017-May-23 12:30N 35°29' E 139°39'0 0.0
2017-May-23 12:00N 35°29' E 139°39'0 0.0
2017-May-23 11:30N 35°29' E 139°39'0 0.0
2017-May-23 11:00N 35°29' E 139°39'0 0.0
2017-May-23 10:30N 35°29' E 139°39'0 0.0
2017-May-23 10:00N 35°29' E 139°39'0 0.0
2017-May-23 09:30N 35°29' E 139°39'0 0.0
2017-May-23 09:00N 35°29' E 139°39'1 1.4
2017-May-23 08:30N 35°28' E 139°40'510.5
2017-May-23 08:00N 35°27' E 139°46'510.2
2017-May-23 07:30N 35°30' E 139°51'510.6
2017-May-23 07:00N 35°32' E 139°57'8 1.0
2017-May-22 22:46N 35°35' E 140°07'2 0.6
2017-May-22 19:06N 35°35' E 140°04'0 0.0
2017-May-22 18:50N 35°35' E 140°04'0 0.0
2017-May-22 15:56N 35°35' E 140°04'0 0.0
2017-May-22 15:26N 35°35' E 140°04'0 0.0
2017-May-22 14:48N 35°35' E 140°04'0 0.0
2017-May-22 14:30N 35°35' E 140°04'1 0.3
2017-May-22 10:33N 35°34' E 140°03'210.7
2017-May-22 10:22N 35°33' E 140°01'411.0
2017-May-22 10:00N 35°31' E 139°56'511.0
2017-May-22 09:30N 35°28' E 139°51'5 9.8
2017-May-22 09:00N 35°29' E 139°45'1 1.6
2017-May-22 08:30N 35°29' E 139°44'0 0.0
2017-May-22 08:00N 35°29' E 139°44'0 0.0
2017-May-22 07:30N 35°29' E 139°44'0 0.0
2017-May-22 07:00N 35°29' E 139°44'0 0.0
2017-May-22 06:30N 35°29' E 139°44'0 0.0
2017-May-22 06:00N 35°29' E 139°44'0 0.0
2017-May-22 05:30N 35°29' E 139°44'0 0.0
2017-May-22 05:00N 35°29' E 139°44'0 0.0
2017-May-22 04:30N 35°29' E 139°44'0 0.0
2017-May-22 04:00N 35°29' E 139°44'0 0.0
2017-May-22 03:30N 35°29' E 139°44'0 0.0
2017-May-22 03:00N 35°29' E 139°44'0 0.0
2017-May-22 02:30N 35°29' E 139°44'0 0.0
2017-May-22 02:00N 35°29' E 139°44'0 0.0
2017-May-22 01:30N 35°29' E 139°44'0 0.0
2017-May-22 01:00N 35°29' E 139°44'0 0.0
2017-May-22 00:30N 35°29' E 139°44'0 0.0
2017-May-22 00:00N 35°29' E 139°44'0 0.0
2017-May-21 23:30N 35°29' E 139°44'0 0.0
2017-May-21 23:00N 35°29' E 139°44'0 0.1
2017-May-21 22:30N 35°29' E 139°44'1 2.4
2017-May-21 22:00N 35°29' E 139°46'0 0.0
2017-May-21 21:30N 35°29' E 139°46'0 0.0
2017-May-21 21:00N 35°29' E 139°46'0 0.0
2017-May-21 20:30N 35°29' E 139°46'0 0.0
2017-May-21 20:00N 35°29' E 139°46'0 0.0
2017-May-21 19:30N 35°29' E 139°46'0 0.0
2017-May-21 19:00N 35°29' E 139°46'0 0.0
2017-May-21 18:30N 35°29' E 139°46'0 0.0
2017-May-21 18:00N 35°29' E 139°46'0 0.0
2017-May-21 17:30N 35°29' E 139°46'0 0.0
2017-May-21 17:00N 35°29' E 139°46'0 0.0
2017-May-21 16:30N 35°29' E 139°46'0 0.1
2017-May-21 16:00N 35°29' E 139°46'0 0.1
2017-May-21 15:30N 35°29' E 139°46'0 0.0
2017-May-21 15:00N 35°29' E 139°46'0 0.0
2017-May-21 14:30N 35°29' E 139°46'0 0.0
2017-May-21 13:30N 35°29' E 139°46'0 0.0
2017-May-21 13:00N 35°29' E 139°46'0 0.0
2017-May-21 12:30N 35°29' E 139°46'0 0.1
2017-May-21 12:00N 35°29' E 139°46'0 0.1
2017-May-21 11:30N 35°29' E 139°46'0 0.0
2017-May-21 11:00N 35°29' E 139°46'0 0.1
2017-May-21 10:30N 35°29' E 139°46'0 0.0
2017-May-21 10:00N 35°29' E 139°46'0 0.1
2017-May-21 09:30N 35°29' E 139°46'0 0.1
2017-May-21 09:00N 35°29' E 139°46'0 0.1
2017-May-21 08:30N 35°29' E 139°46'0 0.1
2017-May-21 08:00N 35°29' E 139°46'0 0.0
2017-May-21 07:30N 35°29' E 139°46'0 0.0
2017-May-21 07:00N 35°29' E 139°46'0 0.0
2017-May-21 06:30N 35°29' E 139°46'0 0.0
2017-May-21 06:00N 35°29' E 139°46'0 0.1
2017-May-21 05:30N 35°29' E 139°46'0 0.0
2017-May-21 05:00N 35°29' E 139°46'0 0.0
2017-May-21 04:30N 35°29' E 139°46'0 0.0
2017-May-21 04:00N 35°29' E 139°46'1 1.2
2017-May-21 03:30N 35°29' E 139°46'510.2
2017-May-21 03:00N 35°30' E 139°52'611.5
2017-May-21 02:30N 35°33' E 139°58'3 0.6
2017-May-20 22:00N 35°34' E 140°02'5 7.3
2017-May-20 21:19N 35°39' E 139°59'2 0.1
2017-May-20 05:30N 35°41' E 139°59'4 0.2
2017-May-19 12:45N 35°37' E 139°58'4 9.8
2017-May-19 12:19N 35°34' E 139°55'411.6
2017-May-19 12:00N 35°31' E 139°52'611.6
2017-May-19 11:30N 35°29' E 139°45'1 2.2
2017-May-19 11:00N 35°29' E 139°44'0 0.0
2017-May-19 10:30N 35°29' E 139°44'0 0.0
2017-May-19 10:00N 35°29' E 139°44'0 0.0
2017-May-19 09:30N 35°29' E 139°44'0 0.0
2017-May-19 09:00N 35°29' E 139°44'0 0.0
2017-May-19 08:30N 35°29' E 139°44'0 0.0
2017-May-19 08:00N 35°29' E 139°44'0 0.0
2017-May-19 07:30N 35°29' E 139°44'0 0.0
2017-May-19 07:00N 35°29' E 139°44'0 0.0
2017-May-19 06:30N 35°29' E 139°44'0 0.0
2017-May-19 06:00N 35°29' E 139°44'0 0.0
2017-May-19 05:30N 35°29' E 139°44'0 0.0
2017-May-19 05:00N 35°29' E 139°44'0 0.0
2017-May-19 04:30N 35°29' E 139°44'0 0.0
2017-May-19 04:00N 35°29' E 139°44'0 0.0
2017-May-19 03:30N 35°29' E 139°44'0 0.0
2017-May-19 03:00N 35°29' E 139°44'1 2.6
2017-May-19 02:30N 35°29' E 139°46'0 0.1
2017-May-19 02:00N 35°29' E 139°45'0 0.0
2017-May-19 01:30N 35°29' E 139°45'0 0.0
2017-May-19 01:00N 35°29' E 139°45'0 0.0
2017-May-19 00:30N 35°29' E 139°45'0 0.0
2017-May-19 00:00N 35°29' E 139°45'0 0.0
2017-May-18 23:30N 35°29' E 139°45'0 0.1
2017-May-18 23:00N 35°29' E 139°46'0 0.0
2017-May-18 22:30N 35°29' E 139°46'0 0.0
2017-May-18 22:00N 35°29' E 139°46'0 0.0
2017-May-18 21:30N 35°29' E 139°46'0 0.0
2017-May-18 21:00N 35°29' E 139°46'0 0.0
2017-May-18 20:30N 35°29' E 139°46'0 0.0
2017-May-18 20:00N 35°29' E 139°46'0 0.0
2017-May-18 19:30N 35°29' E 139°46'0 0.0
2017-May-18 19:00N 35°29' E 139°46'0 0.0
2017-May-18 18:30N 35°29' E 139°46'0 0.0
2017-May-18 18:00N 35°29' E 139°46'0 0.0
2017-May-18 17:30N 35°29' E 139°46'0 0.1
2017-May-18 17:00N 35°29' E 139°45'0 0.0
2017-May-18 16:30N 35°29' E 139°45'0 0.0
2017-May-18 16:00N 35°29' E 139°45'0 0.0
2017-May-18 15:30N 35°29' E 139°45'0 0.0
2017-May-18 15:00N 35°29' E 139°45'0 0.0
2017-May-18 14:30N 35°29' E 139°45'0 0.1
2017-May-18 13:30N 35°29' E 139°45'0 0.0
2017-May-18 13:00N 35°29' E 139°45'0 0.0
2017-May-18 12:30N 35°29' E 139°45'0 0.0
2017-May-18 12:00N 35°29' E 139°45'0 0.0
2017-May-18 11:30N 35°29' E 139°45'0 0.0
2017-May-18 11:00N 35°29' E 139°45'0 0.0
2017-May-18 10:30N 35°29' E 139°45'0 0.0
2017-May-18 10:00N 35°29' E 139°45'0 0.0
2017-May-18 09:30N 35°29' E 139°45'0 0.3
2017-May-18 09:00N 35°28' E 139°46'610.9
2017-May-18 08:30N 35°30' E 139°52'5 0.5
2017-May-17 22:05N 35°30' E 139°59'1 7.5
2017-May-17 22:00N 35°31' E 139°58'0 0.1
2017-May-17 21:07N 35°30' E 139°58'0 0.0
2017-May-17 20:58N 35°30' E 139°58'0 0.0
2017-May-17 20:27N 35°30' E 139°58'0 0.0
2017-May-17 20:00N 35°30' E 139°58'0 0.0
2017-May-17 19:30N 35°30' E 139°58'0 0.0
2017-May-17 18:57N 35°30' E 139°58'0 0.0
2017-May-17 18:24N 35°30' E 139°58'0 0.0
2017-May-17 18:00N 35°30' E 139°58'0 0.0
2017-May-17 17:30N 35°30' E 139°58'0 0.0
2017-May-17 17:00N 35°30' E 139°58'0 0.0
2017-May-17 16:30N 35°30' E 139°58'0 0.0
2017-May-17 15:54N 35°30' E 139°58'0 0.0
2017-May-17 15:30N 35°30' E 139°58'0 0.0
2017-May-17 15:00N 35°30' E 139°58'0 0.0
2017-May-17 13:51N 35°30' E 139°58'0 0.0
2017-May-17 13:28N 35°30' E 139°58'0 0.0
2017-May-17 09:07N 35°30' E 139°58'0 0.0
2017-May-17 08:59N 35°30' E 139°58'0 0.0
2017-May-17 08:29N 35°30' E 139°58'0 0.0
2017-May-17 08:00N 35°30' E 139°58'0 0.0
2017-May-17 07:29N 35°30' E 139°58'0 0.0
2017-May-17 05:08N 35°30' E 139°58'0 0.0
2017-May-17 04:46N 35°30' E 139°58'0 0.0
2017-May-17 04:23N 35°31' E 139°58'3 8.5
2017-May-17 04:00N 35°29' E 139°55'5 9.7
2017-May-17 03:30N 35°27' E 139°50'5 9.7
2017-May-17 02:59N 35°23' E 139°46'5 9.3
2017-May-17 02:30N 35°19' E 139°44'43 1.2
2017-May-15 13:30N 34°47' E 139°08'2210.4
2017-May-15 11:24N 35°02' E 139°28'411.0
2017-May-15 11:00N 35°03' E 139°32'611.7
2017-May-15 10:30N 35°05' E 139°39'611.4
2017-May-15 10:00N 35°09' E 139°44'510.8
2017-May-15 09:30N 35°14' E 139°46'510.5
2017-May-15 09:00N 35°19' E 139°43'510.2
2017-May-15 08:30N 35°24' E 139°43'510.5
2017-May-15 08:00N 35°28' E 139°47'3 5.6
2017-May-15 07:30N 35°30' E 139°44'1 1.6
2017-May-15 07:00N 35°31' E 139°44'0 0.0
2017-May-15 06:30N 35°31' E 139°44'0 0.0
2017-May-15 06:00N 35°31' E 139°44'0 0.0
2017-May-15 05:30N 35°31' E 139°44'0 0.0
2017-May-15 05:00N 35°31' E 139°44'0 0.0
2017-May-15 04:30N 35°31' E 139°44'0 0.0
2017-May-15 04:00N 35°31' E 139°44'0 0.0
2017-May-15 03:30N 35°31' E 139°44'0 0.0
2017-May-15 03:00N 35°31' E 139°44'0 0.0
2017-May-15 02:30N 35°31' E 139°44'0 0.0
2017-May-15 02:00N 35°31' E 139°44'0 0.0
2017-May-15 01:30N 35°31' E 139°44'0 0.0
2017-May-15 01:00N 35°31' E 139°44'0 0.0
2017-May-15 00:30N 35°31' E 139°44'0 0.0
2017-May-15 00:00N 35°31' E 139°44'0 0.0
2017-May-14 23:30N 35°31' E 139°44'0 0.0
2017-May-14 23:00N 35°31' E 139°44'0 0.0
2017-May-14 22:30N 35°31' E 139°44'0 0.0
2017-May-14 22:00N 35°31' E 139°44'0 0.0
2017-May-14 21:30N 35°31' E 139°44'0 0.0
2017-May-14 21:00N 35°31' E 139°44'0 0.1
2017-May-14 20:30N 35°31' E 139°44'0 0.1
2017-May-14 20:00N 35°31' E 139°44'0 0.0
2017-May-14 19:30N 35°31' E 139°44'0 0.0
2017-May-14 19:00N 35°31' E 139°44'0 0.0
2017-May-14 18:30N 35°31' E 139°44'0 0.0
2017-May-14 18:00N 35°31' E 139°44'0 0.0
2017-May-14 17:30N 35°31' E 139°44'0 0.0
2017-May-14 17:00N 35°31' E 139°44'0 0.0
2017-May-14 16:30N 35°31' E 139°44'0 0.0
2017-May-14 16:00N 35°31' E 139°44'0 0.0
2017-May-14 15:30N 35°31' E 139°44'0 0.0
2017-May-14 15:00N 35°31' E 139°44'0 0.0
2017-May-14 14:30N 35°31' E 139°44'0 0.0
2017-May-14 13:30N 35°31' E 139°44'0 0.0
2017-May-14 13:00N 35°31' E 139°44'0 0.0
2017-May-14 12:30N 35°31' E 139°44'0 0.0
2017-May-14 12:00N 35°31' E 139°44'0 0.0
2017-May-14 11:30N 35°31' E 139°44'0 0.0
2017-May-14 11:00N 35°31' E 139°44'0 0.0
2017-May-14 10:30N 35°31' E 139°44'0 0.0
2017-May-14 10:00N 35°31' E 139°44'0 0.0
2017-May-14 09:30N 35°31' E 139°44'0 0.0
2017-May-14 09:00N 35°31' E 139°44'0 0.0
2017-May-14 08:30N 35°31' E 139°44'0 0.0
2017-May-14 08:00N 35°31' E 139°44'0 0.0
2017-May-14 07:30N 35°31' E 139°44'0 0.0
2017-May-14 07:00N 35°31' E 139°44'0 0.0
2017-May-14 06:30N 35°31' E 139°44'0 0.0
2017-May-14 06:00N 35°31' E 139°44'0 0.0
2017-May-14 05:30N 35°31' E 139°44'  

Dump ship's entire track history